Time;durP1;ratioP1;P1;durP2;ratioP2;P2;SDS_P1;SDS_P2;PMS_P1;PMS_P2;Temp;Humidity;BMP_temperature;BMP_pressure;BME280_temperature;BME280_humidity;BME280_pressure;Samples;Min_cycle;Max_cycle;Signal;HPM_P1;HPM_P2
2023/04/15 00:02:22;;;;;;;10.80;3.72;;;;;;;8.33;59.12;93145.09;5063544;28;20028;-87
2023/04/15 00:04:48;;;;;;;15.07;4.35;;;;;;;8.35;59.09;93148.22;5063385;28;20021;-87
2023/04/15 00:07:13;;;;;;;10.75;4.18;;;;;;;8.35;58.68;93166.03;5063471;28;20059;-87
2023/04/15 00:09:40;;;;;;;9.70;4.13;;;;;;;8.34;58.31;93177.72;5063379;28;20082;-84
2023/04/15 00:12:06;;;;;;;9.23;3.65;;;;;;;8.29;58.81;93191.19;5062911;28;20044;-84
2023/04/15 00:14:34;;;;;;;8.05;3.17;;;;;;;7.91;59.36;93191.81;5063101;28;20246;-84
2023/04/15 00:17:00;;;;;;;8.82;2.88;;;;;;;7.72;60.34;93190.25;5062979;28;20024;-84
2023/04/15 00:19:25;;;;;;;9.23;3.20;;;;;;;7.62;61.01;93190.53;5062788;28;20032;-84
2023/04/15 00:21:51;;;;;;;6.05;2.38;;;;;;;7.37;61.27;93176.16;5061763;28;20052;-84
2023/04/15 00:24:16;;;;;;;6.65;3.20;;;;;;;7.41;61.17;93174.44;5062905;28;20071;-84
2023/04/15 00:26:42;;;;;;;12.13;2.80;;;;;;;7.42;61.45;93176.00;5063005;28;20083;-85
2023/04/15 00:29:07;;;;;;;8.18;3.30;;;;;;;7.49;61.42;93175.53;5062967;28;20112;-85
2023/04/15 00:31:33;;;;;;;7.60;3.00;;;;;;;7.57;61.49;93169.47;5062656;28;20212;-84
2023/04/15 00:33:58;;;;;;;6.28;2.40;;;;;;;7.69;61.80;93168.84;5062822;28;20051;-86
2023/04/15 00:36:25;;;;;;;6.45;2.95;;;;;;;7.72;61.70;93176.19;5062817;28;20048;-86
2023/04/15 00:38:50;;;;;;;5.32;2.13;;;;;;;7.81;61.58;93180.41;5062697;28;20040;-87
2023/04/15 00:41:18;;;;;;;8.52;2.85;;;;;;;7.95;61.95;93179.47;5061622;28;20029;-85
2023/04/15 00:43:43;;;;;;;8.32;3.40;;;;;;;8.00;61.90;93185.41;5062709;28;20020;-85
2023/04/15 00:46:11;;;;;;;9.13;3.15;;;;;;;8.06;61.48;93180.75;5062904;28;20319;-85
2023/04/15 00:48:37;;;;;;;4.57;2.38;;;;;;;8.14;61.01;93179.94;5062677;28;20320;-85
2023/04/15 00:51:03;;;;;;;8.60;2.60;;;;;;;8.14;61.36;93177.28;5062644;28;20028;-85
2023/04/15 00:53:29;;;;;;;7.30;3.00;;;;;;;8.14;61.27;93179.16;5062278;28;20259;-85
2023/04/15 00:55:55;;;;;;;7.63;2.42;;;;;;;8.19;61.32;93177.13;5061521;28;20280;-85
2023/04/15 00:58:20;;;;;;;6.43;2.33;;;;;;;8.24;61.41;93182.28;5062504;28;20098;-85
2023/04/15 01:00:46;;;;;;;6.78;2.80;;;;;;;8.28;61.67;93184.28;5062497;28;20222;-85
2023/04/15 01:03:12;;;;;;;6.13;2.88;;;;;;;8.18;61.62;93191.50;5062356;28;20096;-85
2023/04/15 01:05:38;;;;;;;5.53;2.58;;;;;;;8.20;61.47;93191.16;5062631;28;20032;-84
2023/04/15 01:08:04;;;;;;;5.78;2.53;;;;;;;8.26;61.62;93186.47;5062379;28;20024;-86
2023/04/15 01:10:30;;;;;;;6.47;2.25;;;;;;;8.27;61.56;93196.03;5062554;28;20021;-85
2023/04/15 01:12:56;;;;;;;4.30;1.90;;;;;;;8.28;61.50;93190.38;5062546;28;20088;-89
2023/04/15 01:15:21;;;;;;;5.07;2.05;;;;;;;8.31;61.78;93189.75;5061503;28;20036;-84
2023/04/15 01:17:47;;;;;;;4.25;1.90;;;;;;;8.30;61.71;93184.75;5062448;28;20088;-85
2023/04/15 01:20:14;;;;;;;8.65;2.45;;;;;;;8.32;61.55;93185.22;5062385;28;20029;-84
2023/04/15 01:22:40;;;;;;;6.55;1.80;;;;;;;8.35;61.12;93179.28;5062454;28;20024;-85
2023/04/15 01:25:10;;;;;;;5.28;1.83;;;;;;;8.34;61.12;93173.19;5063360;28;20029;-85
2023/04/15 01:27:38;;;;;;;10.30;2.00;;;;;;;8.35;61.29;93176.63;5064958;28;20033;-84
2023/04/15 01:30:06;;;;;;;4.47;1.90;;;;;;;8.32;61.55;93169.28;5065956;28;20119;-83
2023/04/15 01:32:31;;;;;;;7.75;2.35;;;;;;;8.26;61.73;93178.50;5066001;28;20082;-83
2023/04/15 01:34:57;;;;;;;7.82;2.10;;;;;;;8.25;61.57;93175.09;5065922;28;20029;-85
2023/04/15 01:37:23;;;;;;;4.05;1.85;;;;;;;8.26;61.24;93166.00;5066100;28;20020;-84
2023/04/15 01:39:48;;;;;;;5.28;1.90;;;;;;;8.20;61.23;93168.06;5065841;28;20063;-87
2023/04/15 01:42:14;;;;;;;4.68;1.63;;;;;;;8.21;61.27;93177.59;5065872;28;20095;-86
2023/04/15 01:44:40;;;;;;;7.50;1.88;;;;;;;8.16;61.51;93174.31;5066049;28;20017;-87
2023/04/15 01:47:05;;;;;;;4.80;2.28;;;;;;;8.11;61.85;93177.91;5065714;28;20017;-87
2023/04/15 01:49:31;;;;;;;3.55;1.65;;;;;;;8.05;61.85;93187.13;5065721;28;20036;-86
2023/04/15 01:51:56;;;;;;;6.63;2.10;;;;;;;8.05;62.45;93195.09;5065881;28;20228;-86
2023/04/15 01:54:22;;;;;;;5.35;1.88;;;;;;;8.04;62.88;93198.84;5064548;28;20227;-86
2023/04/15 01:56:48;;;;;;;6.80;2.25;;;;;;;7.96;62.73;93205.72;5064266;28;20040;-87
2023/04/15 01:59:13;;;;;;;7.07;1.83;;;;;;;7.91;62.69;93194.47;5065492;28;20197;-86
2023/04/15 02:01:39;;;;;;;4.20;1.95;;;;;;;7.89;62.60;93199.31;5065830;28;20031;-87
2023/04/15 02:04:06;;;;;;;3.55;1.25;;;;;;;7.83;62.52;93202.09;5065447;28;20088;-86
2023/04/15 02:06:31;;;;;;;5.10;1.70;;;;;;;7.78;62.76;93193.53;5065278;28;20028;-85
2023/04/15 02:08:57;;;;;;;5.90;2.10;;;;;;;7.75;63.10;93189.59;5064254;28;20082;-86
2023/04/15 02:11:23;;;;;;;6.95;1.90;;;;;;;7.77;63.46;93187.41;5065292;28;20024;-86
2023/04/15 02:13:48;;;;;;;7.68;2.47;;;;;;;7.75;63.39;93189.59;5065225;28;20025;-86
2023/04/15 02:16:16;;;;;;;5.28;1.90;;;;;;;7.72;63.39;93178.84;5065182;28;20044;-87
2023/04/15 02:18:43;;;;;;;5.60;1.90;;;;;;;7.69;63.33;93182.13;5065294;28;20017;-85
2023/04/15 02:21:08;;;;;;;7.82;2.30;;;;;;;7.68;63.26;93177.91;5065224;28;20053;-86
2023/04/15 02:23:34;;;;;;;5.32;1.80;;;;;;;7.61;63.64;93173.84;5065074;28;20020;-86
2023/04/15 02:25:59;;;;;;;12.35;3.72;;;;;;;7.59;63.75;93185.84;5064983;28;20092;-86
2023/04/15 02:28:26;;;;;;;7.65;3.40;;;;;;;7.57;63.67;93182.72;5064796;28;20071;-86
2023/04/15 02:30:53;;;;;;;8.40;3.25;;;;;;;7.56;63.67;93175.88;5064926;28;20258;-83
2023/04/15 02:33:19;;;;;;;7.47;2.03;;;;;;;7.52;63.47;93175.69;5065046;28;20021;-84
2023/04/15 02:35:44;;;;;;;5.90;2.78;;;;;;;7.52;63.66;93172.28;5063541;28;20319;-84
2023/04/15 02:38:10;;;;;;;4.63;2.05;;;;;;;7.44;63.65;93163.97;5064896;28;20016;-84
2023/04/15 02:40:36;;;;;;;5.65;1.70;;;;;;;7.42;63.77;93171.47;5064815;28;20212;-84
2023/04/15 02:43:02;;;;;;;4.70;1.50;;;;;;;7.43;63.49;93183.66;5064597;28;20013;-84
2023/04/15 02:45:27;;;;;;;4.53;1.65;;;;;;;7.34;62.93;93201.41;5064622;28;20020;-84
2023/04/15 02:47:53;;;;;;;7.43;2.60;;;;;;;7.11;64.08;93192.75;5064452;28;20020;-84
2023/04/15 02:50:19;;;;;;;4.85;2.08;;;;;;;6.97;65.47;93192.09;5064487;28;20027;-86
2023/04/15 02:52:45;;;;;;;8.18;2.53;;;;;;;6.92;66.02;93181.63;5064240;28;20017;-90
2023/04/15 02:55:11;;;;;;;6.65;2.20;;;;;;;6.83;66.88;93192.19;5065575;28;20303;-89
2023/04/15 02:57:38;;;;;;;4.85;2.50;;;;;;;6.67;68.75;93189.16;5065182;28;20345;-89
2023/04/15 03:00:04;;;;;;;6.07;2.45;;;;;;;6.56;68.60;93209.03;5065335;28;20017;-90
2023/04/15 03:02:37;;;;;;;5.88;2.28;;;;;;;6.55;68.98;93197.66;5065533;28;20015;-91
2023/04/15 03:05:06;;;;;;;4.38;2.40;;;;;;;6.56;70.13;93199.22;5065195;28;20303;-90
2023/04/15 03:07:31;;;;;;;4.80;2.92;;;;;;;6.54;70.24;93196.09;5064650;28;20390;-87
2023/04/15 03:09:57;;;;;;;9.13;3.20;;;;;;;6.56;70.64;93203.75;5064173;28;20013;-84
2023/04/15 03:12:22;;;;;;;8.98;2.78;;;;;;;6.48;70.71;93210.56;5064216;28;20028;-85
2023/04/15 03:14:48;;;;;;;6.95;3.05;;;;;;;6.38;71.55;93208.94;5063969;28;20027;-85
2023/04/15 03:17:13;;;;;;;6.32;3.30;;;;;;;6.37;71.56;93211.88;5064152;28;20020;-83
2023/04/15 03:19:39;;;;;;;4.32;1.88;;;;;;;6.31;71.21;93218.38;5064127;28;20017;-83
2023/04/15 03:22:04;;;;;;;6.47;2.17;;;;;;;6.26;70.22;93221.16;5064451;28;20070;-88
2023/04/15 03:24:30;;;;;;;7.72;2.75;;;;;;;6.16;70.52;93214.22;5064862;28;20341;-88
2023/04/15 03:26:56;;;;;;;5.18;2.30;;;;;;;6.19;70.62;93216.28;5063445;28;20319;-88
2023/04/15 03:29:22;;;;;;;8.23;2.17;;;;;;;6.19;70.25;93217.06;5064093;28;20143;-84
2023/04/15 03:31:48;;;;;;;5.00;2.20;;;;;;;6.18;70.88;93220.78;5063669;28;20088;-84
2023/04/15 03:34:13;;;;;;;4.70;2.45;;;;;;;6.16;70.90;93227.47;5063707;28;20085;-84
2023/04/15 03:36:39;;;;;;;4.90;1.90;;;;;;;6.14;70.50;93233.06;5063923;28;20020;-84
2023/04/15 03:39:05;;;;;;;8.13;2.50;;;;;;;6.08;70.87;93231.59;5062520;28;20017;-84
2023/04/15 03:41:31;;;;;;;10.27;2.78;;;;;;;6.11;70.94;93241.59;5063525;28;20097;-84
2023/04/15 03:43:57;;;;;;;7.93;2.30;;;;;;;6.14;70.57;93243.63;5063647;28;20105;-83
2023/04/15 03:46:22;;;;;;;6.75;2.42;;;;;;;6.18;70.58;93249.88;5063341;28;20323;-83
2023/04/15 03:48:48;;;;;;;7.63;3.63;;;;;;;6.18;70.89;93260.47;5062961;28;20200;-83
2023/04/15 03:51:13;;;;;;;12.93;4.63;;;;;;;6.18;70.91;93252.53;5063417;28;20027;-82
2023/04/15 03:53:39;;;;;;;10.35;3.97;;;;;;;6.20;71.01;93260.97;5063315;28;20025;-83
2023/04/15 03:56:04;;;;;;;11.60;3.78;;;;;;;6.19;70.91;93264.69;5063264;28;20047;-83
2023/04/15 03:58:30;;;;;;;8.07;3.80;;;;;;;6.14;71.35;93256.09;5063147;28;20227;-83
2023/04/15 04:00:55;;;;;;;6.72;3.42;;;;;;;6.16;71.11;93257.34;5063196;28;20020;-84
2023/04/15 04:03:21;;;;;;;10.00;3.70;;;;;;;6.21;70.77;93257.25;5062997;28;20390;-84
2023/04/15 04:05:46;;;;;;;9.23;3.05;;;;;;;6.11;71.13;93257.47;5062963;28;20021;-84
2023/04/15 04:08:15;;;;;;;7.90;3.42;;;;;;;6.02;71.69;93272.47;5063036;28;20025;-84
2023/04/15 04:10:41;;;;;;;10.48;4.57;;;;;;;5.91;72.38;93269.25;5063107;28;20021;-84
2023/04/15 04:13:06;;;;;;;10.85;4.35;;;;;;;5.85;72.83;93265.16;5063042;28;20047;-85
2023/04/15 04:15:32;;;;;;;11.02;4.85;;;;;;;5.86;73.03;93261.41;5062741;28;20028;-85
2023/04/15 04:17:57;;;;;;;11.00;4.38;;;;;;;5.84;73.14;93260.94;5062911;28;20196;-84
2023/04/15 04:20:23;;;;;;;7.53;3.95;;;;;;;5.86;73.55;93260.66;5061739;28;20025;-84
2023/04/15 04:22:49;;;;;;;8.05;3.53;;;;;;;5.92;73.45;93267.38;5062934;28;20021;-84
2023/04/15 04:25:15;;;;;;;10.10;4.15;;;;;;;5.92;73.45;93259.44;5062573;28;20066;-84
2023/04/15 04:27:40;;;;;;;11.95;4.85;;;;;;;6.03;73.35;93266.13;5062982;28;20052;-84
2023/04/15 04:30:08;;;;;;;8.57;2.92;;;;;;;6.06;73.02;93260.22;5062998;28;20020;-84
2023/04/15 04:32:33;;;;;;;11.18;3.90;;;;;;;6.14;72.86;93256.09;5062780;28;20028;-84
2023/04/15 04:34:58;;;;;;;8.55;4.13;;;;;;;6.24;72.47;93255.84;5062828;28;20021;-84
2023/04/15 04:37:24;;;;;;;11.20;3.92;;;;;;;6.28;72.24;93261.34;5062791;28;20044;-84
2023/04/15 04:39:50;;;;;;;13.57;4.78;;;;;;;6.38;71.64;93259.22;5062626;28;20372;-84
2023/04/15 04:42:15;;;;;;;10.85;4.20;;;;;;;6.42;71.23;93267.34;5062680;28;20017;-86
2023/04/15 04:44:40;;;;;;;9.45;4.72;;;;;;;6.48;70.95;93268.03;5062861;28;20020;-82
2023/04/15 04:47:06;;;;;;;11.63;4.88;;;;;;;6.52;71.13;93275.06;5062380;28;20020;-82
2023/04/15 04:49:32;;;;;;;9.18;4.40;;;;;;;6.57;71.30;93277.59;5062497;28;20033;-82
2023/04/15 04:51:58;;;;;;;7.35;3.40;;;;;;;6.63;71.03;93267.63;5062415;28;20027;-85
2023/04/15 04:54:23;;;;;;;12.63;4.07;;;;;;;6.74;70.57;93284.09;5062520;28;20322;-85
2023/04/15 04:56:49;;;;;;;16.17;4.10;;;;;;;6.84;70.84;93289.13;5062473;28;20048;-88
2023/04/15 04:59:14;;;;;;;9.95;4.15;;;;;;;6.88;70.65;93290.09;5062494;28;20040;-85
2023/04/15 05:01:40;;;;;;;9.27;4.18;;;;;;;6.97;70.52;93292.78;5065701;28;20052;-86
2023/04/15 05:04:06;;;;;;;16.85;5.00;;;;;;;6.98;70.44;93300.44;5066488;28;20020;-85
2023/04/15 05:06:32;;;;;;;10.98;5.03;;;;;;;6.98;70.81;93316.31;5066608;28;20272;-85
2023/04/15 05:08:57;;;;;;;9.32;4.68;;;;;;;7.00;70.21;93323.94;5066169;28;20025;-85
2023/04/15 05:11:23;;;;;;;14.13;5.43;;;;;;;7.06;70.01;93322.72;5066318;28;20029;-85
2023/04/15 05:13:48;;;;;;;14.50;5.70;;;;;;;7.14;68.92;93324.66;5066491;28;20192;-84
2023/04/15 05:16:14;;;;;;;12.60;4.68;;;;;;;7.20;67.66;93333.25;5066221;28;20044;-85
2023/04/15 05:18:40;;;;;;;10.02;5.65;;;;;;;7.23;66.93;93337.97;5066159;28;20303;-83
2023/04/15 05:21:05;;;;;;;10.05;5.15;;;;;;;7.28;66.42;93345.78;5066213;28;20097;-84
2023/04/15 05:23:31;;;;;;;18.17;5.53;;;;;;;7.35;65.40;93324.16;5065903;28;20066;-84
2023/04/15 05:25:56;;;;;;;12.32;5.55;;;;;;;7.42;63.31;93335.84;5065930;28;20036;-83
2023/04/15 05:28:22;;;;;;;9.05;4.43;;;;;;;7.42;63.50;93341.16;5066022;28;20363;-83
2023/04/15 05:30:47;;;;;;;9.07;4.72;;;;;;;7.47;63.88;93331.50;5066018;28;20059;-86
2023/04/15 05:33:13;;;;;;;11.52;4.43;;;;;;;7.54;63.24;93329.22;5065969;28;20085;-82
2023/04/15 05:35:38;;;;;;;8.57;4.68;;;;;;;7.64;61.94;93315.66;5066256;28;20115;-82
2023/04/15 05:38:03;;;;;;;10.05;4.97;;;;;;;7.72;62.05;93314.13;5065848;28;20021;-82
2023/04/15 05:40:30;;;;;;;8.85;4.80;;;;;;;7.75;62.11;93319.59;5065579;28;20036;-82
2023/04/15 05:42:55;;;;;;;16.02;5.68;;;;;;;7.84;61.52;93324.94;5066067;28;20054;-86
2023/04/15 05:45:21;;;;;;;9.10;4.45;;;;;;;7.91;61.42;93322.59;5062879;28;20078;-86
2023/04/15 05:47:46;;;;;;;8.95;4.75;;;;;;;7.98;61.57;93316.88;5063652;28;20024;-82
2023/04/15 05:50:12;;;;;;;12.20;4.28;;;;;;;8.07;60.76;93328.25;5064501;28;20017;-81
2023/04/15 05:52:37;;;;;;;9.70;4.38;;;;;;;8.15;61.04;93311.56;5062874;28;20032;-81
2023/04/15 05:55:03;;;;;;;9.50;4.28;;;;;;;8.02;61.34;93315.94;5063645;28;20343;-81
2023/04/15 05:57:28;;;;;;;11.48;4.68;;;;;;;8.26;62.30;93327.19;5063676;28;20407;-81
2023/04/15 05:59:56;;;;;;;12.50;4.45;;;;;;;8.37;61.82;93317.84;5063645;28;20017;-81
2023/04/15 06:02:21;;;;;;;12.30;5.63;;;;;;;8.52;61.53;93337.88;5063489;28;20335;-81
2023/04/15 06:04:47;;;;;;;9.77;4.35;;;;;;;8.67;61.89;93337.41;5063665;28;20016;-80
2023/04/15 06:07:12;;;;;;;14.82;5.47;;;;;;;8.76;61.78;93334.75;5065187;28;20020;-80
2023/04/15 06:09:38;;;;;;;10.65;5.03;;;;;;;8.91;61.57;93336.13;5065313;28;20020;-79
2023/04/15 06:12:05;;;;;;;10.07;5.15;;;;;;;9.01;61.35;93333.91;5065275;28;20310;-83
2023/04/15 06:14:30;;;;;;;8.95;5.07;;;;;;;9.14;61.36;93347.34;5065501;28;20100;-86
2023/04/15 06:16:56;;;;;;;13.13;4.50;;;;;;;9.21;60.67;93329.03;5065517;28;20044;-82
2023/04/15 06:19:21;;;;;;;7.85;3.88;;;;;;;9.29;60.65;93348.72;5065231;28;20303;-86
2023/04/15 06:21:47;;;;;;;7.95;4.13;;;;;;;9.39;59.99;93348.38;5064044;28;20023;-83
2023/04/15 06:24:12;;;;;;;10.65;4.25;;;;;;;9.46;60.08;93350.56;5064934;28;20235;-84
2023/04/15 06:26:37;;;;;;;7.65;3.70;;;;;;;9.55;59.34;93360.06;5065234;28;20025;-86
2023/04/15 06:29:03;;;;;;;7.15;3.60;;;;;;;9.64;58.80;93357.38;5064968;28;20024;-84
2023/04/15 06:31:29;;;;;;;6.22;2.80;;;;;;;9.69;57.57;93362.53;5065013;28;20040;-84
2023/04/15 06:33:54;;;;;;;10.93;3.33;;;;;;;9.70;56.61;93366.75;5064890;28;20062;-82
2023/04/15 06:36:20;;;;;;;6.78;2.70;;;;;;;9.79;56.70;93372.81;5064804;28;20021;-81
2023/04/15 06:38:46;;;;;;;7.35;2.85;;;;;;;9.84;56.48;93372.63;5064875;28;20028;-83
2023/04/15 06:41:11;;;;;;;6.68;3.15;;;;;;;9.90;56.45;93381.22;5065011;28;20352;-84
2023/04/15 06:43:37;;;;;;;8.05;3.00;;;;;;;9.90;56.34;93373.25;5065018;28;20029;-82
2023/04/15 06:46:03;;;;;;;10.98;3.35;;;;;;;9.94;56.44;93378.72;5064588;28;20103;-82
2023/04/15 06:48:28;;;;;;;9.02;3.40;;;;;;;10.01;55.99;93385.09;5064569;28;20025;-80
2023/04/15 06:50:54;;;;;;;12.52;4.25;;;;;;;10.10;55.69;93387.72;5064642;28;20021;-81
2023/04/15 06:53:20;;;;;;;7.88;3.70;;;;;;;10.17;55.00;93374.66;5064568;28;20021;-80
2023/04/15 06:55:46;;;;;;;9.70;3.80;;;;;;;10.20;55.29;93376.69;5064568;28;20024;-81
2023/04/15 06:58:11;;;;;;;13.32;4.25;;;;;;;10.23;55.34;93381.38;5064433;28;20074;-82
2023/04/15 07:00:38;;;;;;;9.95;3.85;;;;;;;10.34;55.47;93373.03;5063362;28;20123;-81
2023/04/15 07:03:18;;;;;;;8.68;3.60;;;;;;;10.48;55.84;93384.22;5064244;28;20021;-82
2023/04/15 07:05:44;;;;;;;8.60;3.35;;;;;;;10.59;54.88;93374.00;5064195;28;20028;-83
2023/04/15 07:08:10;;;;;;;8.52;3.75;;;;;;;10.74;54.22;93380.63;5064655;28;20063;-81
2023/04/15 07:10:35;;;;;;;5.97;3.13;;;;;;;10.76;54.14;93386.41;5064384;28;20333;-83
2023/04/15 07:13:01;;;;;;;9.90;3.72;;;;;;;10.80;53.30;93379.31;5064161;28;20059;-81
2023/04/15 07:15:27;;;;;;;9.68;3.50;;;;;;;10.90;52.54;93375.47;5064173;28;20021;-82
2023/04/15 07:17:53;;;;;;;8.38;4.10;;;;;;;10.97;52.95;93376.53;5064052;28;20021;-83
2023/04/15 07:20:18;;;;;;;11.52;3.70;;;;;;;11.11;53.92;93384.22;5064065;28;20326;-84
2023/04/15 07:22:44;;;;;;;8.38;4.47;;;;;;;11.24;52.34;93385.84;5063466;28;20043;-84
2023/04/15 07:25:09;;;;;;;9.88;3.42;;;;;;;11.29;52.08;93387.53;5064131;28;20020;-83
2023/04/15 07:27:35;;;;;;;12.52;3.75;;;;;;;11.28;51.99;93375.31;5063704;28;20047;-82
2023/04/15 07:30:01;;;;;;;7.15;3.05;;;;;;;11.43;51.71;93392.56;5064079;28;20044;-86
2023/04/15 07:32:26;;;;;;;8.23;3.30;;;;;;;11.57;51.69;93389.63;5063783;28;20311;-81
2023/04/15 07:34:52;;;;;;;6.57;2.88;;;;;;;11.74;53.46;93392.06;5063476;28;20025;-82
2023/04/15 07:37:17;;;;;;;7.07;2.70;;;;;;;11.87;51.84;93389.47;5063384;28;20311;-82
2023/04/15 07:39:44;;;;;;;12.68;3.53;;;;;;;12.02;52.01;93386.16;5062317;28;20215;-92
2023/04/15 07:42:09;;;;;;;7.50;3.00;;;;;;;12.12;52.44;93380.38;5062432;28;20327;-78
2023/04/15 07:44:35;;;;;;;6.28;2.45;;;;;;;12.26;51.89;93388.06;5063230;28;20087;-76
2023/04/15 07:47:01;;;;;;;8.98;2.35;;;;;;;12.35;50.69;93387.94;5063370;28;20028;-76
2023/04/15 07:49:27;;;;;;;10.30;2.88;;;;;;;12.42;49.75;93391.59;5063287;28;20037;-76
2023/04/15 07:51:52;;;;;;;8.60;2.53;;;;;;;12.45;48.80;93403.50;5063103;28;20020;-75
2023/04/15 07:54:18;;;;;;;9.43;2.58;;;;;;;12.47;48.21;93395.94;5063168;28;20399;-75
2023/04/15 07:56:43;;;;;;;8.52;2.70;;;;;;;12.51;48.86;93396.81;5062938;28;20086;-75
2023/04/15 07:59:09;;;;;;;14.32;3.33;;;;;;;12.60;50.26;93396.72;5063296;28;20027;-75
2023/04/15 08:01:35;;;;;;;7.45;2.50;;;;;;;12.69;50.27;93405.38;5062975;28;20032;-75
2023/04/15 08:04:01;;;;;;;9.10;3.85;;;;;;;12.80;49.54;93409.16;5062832;28;20028;-75
2023/04/15 08:06:26;;;;;;;6.25;2.33;;;;;;;12.87;48.25;93397.09;5063033;28;20024;-74
2023/04/15 08:08:53;;;;;;;8.32;2.60;;;;;;;12.97;45.77;93405.44;5062832;28;20043;-75
2023/04/15 08:11:19;;;;;;;8.52;3.30;;;;;;;13.03;48.05;93406.75;5062960;28;20025;-75
2023/04/15 08:13:45;;;;;;;9.15;3.60;;;;;;;13.13;47.02;93399.38;5062933;28;20061;-75
2023/04/15 08:16:22;;;;;;;13.35;3.60;;;;;;;13.23;46.43;93405.03;5063077;28;20029;-75
2023/04/15 08:18:48;;;;;;;9.65;3.13;;;;;;;13.31;47.29;93403.34;5062801;28;20025;-75
2023/04/15 08:21:15;;;;;;;8.27;2.85;;;;;;;13.48;47.00;93398.81;5062558;28;20223;-75
2023/04/15 08:23:41;;;;;;;9.25;2.70;;;;;;;13.66;46.44;93400.06;5062811;28;20036;-75
2023/04/15 08:26:07;;;;;;;5.18;2.45;;;;;;;13.81;45.38;93396.63;5062719;28;20025;-75
2023/04/15 08:28:33;;;;;;;4.35;2.20;;;;;;;13.98;44.30;93392.84;5062549;28;20263;-76
2023/04/15 08:30:58;;;;;;;7.78;3.20;;;;;;;14.19;44.96;93400.63;5061056;28;20334;-83
2023/04/15 08:33:24;;;;;;;5.40;1.60;;;;;;;14.36;43.34;93383.38;5062616;28;20060;-75
2023/04/15 08:35:50;;;;;;;6.57;1.35;;;;;;;14.50;40.46;93382.94;5062675;28;20388;-74
2023/04/15 08:38:16;;;;;;;3.42;1.20;;;;;;;14.67;38.57;93386.41;5062572;28;20036;-75
2023/04/15 08:40:45;;;;;;;8.32;2.00;;;;;;;14.80;39.84;93385.16;5062551;28;20043;-75
2023/04/15 08:43:27;;;;;;;3.53;1.60;;;;;;;14.83;38.75;93389.81;5062749;28;20091;-84
2023/04/15 08:45:53;;;;;;;7.27;1.67;;;;;;;14.96;38.78;93391.25;5062567;28;20048;-84
2023/04/15 08:48:20;;;;;;;2.90;1.30;;;;;;;15.08;37.57;93381.50;5062611;28;20025;-84
2023/04/15 08:50:46;;;;;;;4.43;1.35;;;;;;;15.11;36.18;93378.13;5062569;28;20020;-83
2023/04/15 08:53:13;;;;;;;2.65;1.05;;;;;;;15.14;34.27;93377.41;5062939;28;20021;-84
2023/04/15 08:55:44;;;;;;;3.95;0.70;;;;;;;15.21;33.71;93378.34;5061066;28;20028;-84
2023/04/15 08:58:10;;;;;;;2.83;0.77;;;;;;;15.30;32.28;93370.06;5062566;28;20060;-82
2023/04/15 09:00:37;;;;;;;0.98;0.50;;;;;;;14.81;31.29;93374.06;5062628;28;20322;-82
2023/04/15 09:03:03;;;;;;;2.90;0.70;;;;;;;14.80;33.08;93371.75;5062630;28;20256;-83
2023/04/15 09:05:32;;;;;;;2.55;1.10;;;;;;;14.83;33.42;93366.44;5062568;28;20224;-85
2023/04/15 09:07:57;;;;;;;0.85;0.40;;;;;;;14.52;31.25;93361.16;5062375;28;20032;-83
2023/04/15 09:10:23;;;;;;;4.38;0.80;;;;;;;14.50;32.61;93366.84;5062571;28;20025;-82
2023/04/15 09:12:48;;;;;;;1.27;0.50;;;;;;;14.57;32.47;93356.31;5062576;28;20016;-82
2023/04/15 09:15:17;;;;;;;3.00;1.33;;;;;;;14.73;35.49;93353.56;5061406;28;20020;-83
2023/04/15 09:17:43;;;;;;;3.85;0.70;;;;;;;14.56;30.87;93340.56;5062441;28;20387;-83
2023/04/15 09:20:12;;;;;;;2.03;0.93;;;;;;;14.56;32.16;93344.03;5062505;28;20051;-83
2023/04/15 09:22:38;;;;;;;2.00;1.10;;;;;;;14.75;34.86;93351.31;5062805;28;20076;-88
2023/04/15 09:25:25;;;;;;;3.42;1.38;;;;;;;14.94;35.87;93349.78;5062578;28;20270;-77
2023/04/15 09:27:56;;;;;;;3.38;1.20;;;;;;;15.04;34.76;93347.34;5062194;28;20033;-74
2023/04/15 09:30:22;;;;;;;6.47;1.10;;;;;;;15.23;34.66;93359.97;5062147;28;20025;-74
2023/04/15 09:32:52;;;;;;;5.82;0.80;;;;;;;15.45;31.91;93357.69;5062026;28;20025;-74
2023/04/15 09:35:18;;;;;;;2.78;0.85;;;;;;;15.64;28.70;93341.53;5062029;28;20021;-73
2023/04/15 09:37:44;;;;;;;3.03;0.80;;;;;;;15.70;29.31;93344.72;5062128;28;20020;-78
2023/04/15 09:40:10;;;;;;;2.15;0.70;;;;;;;15.79;30.23;93345.28;5062523;28;20075;-72
2023/04/15 09:42:36;;;;;;;1.27;0.70;;;;;;;15.89;28.50;93346.59;5062022;28;20029;-73
2023/04/15 09:45:10;;;;;;;5.47;0.82;;;;;;;16.11;30.04;93363.84;5062663;28;20020;-74
2023/04/15 09:47:36;;;;;;;3.17;0.73;;;;;;;16.24;29.38;93354.47;5065839;28;20029;-74
2023/04/15 09:50:02;;;;;;;5.57;0.60;;;;;;;16.48;28.47;93349.78;5065928;28;20078;-73
2023/04/15 09:52:28;;;;;;;1.30;0.60;;;;;;;16.64;27.13;93361.19;5064717;28;20033;-73
2023/04/15 09:54:56;;;;;;;1.45;0.55;;;;;;;16.49;26.52;93372.13;5065615;28;20021;-73
2023/04/15 09:57:22;;;;;;;3.03;0.90;;;;;;;16.34;26.94;93366.50;5065487;28;20037;-73
2023/04/15 09:59:48;;;;;;;3.13;0.77;;;;;;;16.44;27.72;93362.41;5065177;28;20021;-73
2023/04/15 10:02:15;;;;;;;2.03;0.68;;;;;;;16.58;27.18;93353.78;5063754;28;20070;-73
2023/04/15 10:04:43;;;;;;;1.17;0.63;;;;;;;16.60;28.76;93351.50;5064999;28;20056;-73
2023/04/15 10:07:11;;;;;;;2.03;0.80;;;;;;;16.79;28.44;93358.69;5065253;28;20041;-73
2023/04/15 10:09:37;;;;;;;3.58;1.25;;;;;;;16.77;27.74;93350.19;5065507;28;20092;-73
2023/04/15 10:12:04;;;;;;;2.47;0.70;;;;;;;16.74;27.61;93353.63;5065482;28;20041;-73
2023/04/15 10:14:37;;;;;;;2.40;0.80;;;;;;;16.73;27.24;93336.72;5065549;28;20025;-73
2023/04/15 10:17:04;;;;;;;3.13;0.77;;;;;;;16.56;27.47;93346.06;5065179;28;20025;-73
2023/04/15 10:19:36;;;;;;;4.63;0.98;;;;;;;16.51;27.72;93343.72;5065346;28;20074;-73
2023/04/15 10:22:02;;;;;;;3.40;0.65;;;;;;;16.38;27.03;93339.66;5065436;28;20021;-73
2023/04/15 10:24:27;;;;;;;1.45;0.60;;;;;;;16.09;26.99;93331.16;5065262;28;20017;-73
2023/04/15 10:26:54;;;;;;;2.25;0.82;;;;;;;15.99;27.26;93334.47;5065190;28;20017;-73
2023/04/15 10:29:19;;;;;;;3.58;0.90;;;;;;;15.88;27.74;93322.78;5065166;28;20334;-73
2023/04/15 10:31:45;;;;;;;2.60;0.63;;;;;;;15.97;27.92;93325.97;5065187;28;20028;-73
2023/04/15 10:34:12;;;;;;;1.67;0.70;;;;;;;16.02;26.46;93323.00;5065219;28;20308;-73
2023/04/15 10:36:37;;;;;;;1.92;0.80;;;;;;;16.14;27.10;93340.84;5065056;28;20025;-74
2023/04/15 10:39:32;;;;;;;4.13;0.80;;;;;;;16.25;28.22;93331.03;5064917;28;20051;-73
2023/04/15 10:42:14;;;;;;;5.85;0.77;;;;;;;16.34;26.70;93325.38;5064910;28;20273;-73
2023/04/15 10:44:42;;;;;;;3.30;0.70;;;;;;;16.42;27.78;93325.16;5065149;28;20055;-73
2023/04/15 10:47:19;;;;;;;4.03;0.77;;;;;;;16.61;28.89;93323.47;5064940;28;20032;-73
2023/04/15 10:49:56;;;;;;;3.85;1.02;;;;;;;16.80;27.79;93320.66;5064802;28;20031;-73
2023/04/15 10:52:24;;;;;;;4.07;0.80;;;;;;;16.82;26.22;93314.94;5064832;28;20216;-73
2023/04/15 10:55:02;;;;;;;8.32;1.58;;;;;;;16.93;24.70;93315.81;5064486;28;20041;-73
2023/04/15 10:57:34;;;;;;;2.47;0.70;;;;;;;16.98;25.06;93307.44;5063416;28;20041;-73
2023/04/15 11:00:11;;;;;;;1.73;0.70;;;;;;;16.92;24.38;93314.28;5064660;28;20052;-73
2023/04/15 11:02:50;;;;;;;1.25;0.60;;;;;;;16.57;24.66;93306.50;5064513;28;20025;-73
2023/04/15 11:05:17;;;;;;;2.33;0.68;;;;;;;16.49;25.69;93308.31;5064519;28;20227;-73
2023/04/15 11:07:45;;;;;;;2.08;0.60;;;;;;;16.41;26.85;93314.75;5064564;28;20021;-73
2023/04/15 11:10:20;;;;;;;5.50;0.82;;;;;;;16.47;26.22;93310.59;5064528;28;20017;-73
2023/04/15 11:12:49;;;;;;;3.33;0.68;;;;;;;16.62;26.63;93306.94;5064316;28;20100;-73
2023/04/15 11:15:37;;;;;;;1.58;0.60;;;;;;;16.56;24.87;93321.09;5064346;28;20032;-73
2023/04/15 11:18:18;;;;;;;1.15;0.60;;;;;;;16.48;26.34;93320.22;5064249;28;20031;-73
2023/04/15 11:20:45;;;;;;;2.13;0.65;;;;;;;16.38;26.78;93304.69;5064262;28;20029;-73
2023/04/15 11:23:11;;;;;;;3.30;0.63;;;;;;;16.59;26.49;93307.69;5064224;28;20268;-73
2023/04/15 11:25:36;;;;;;;2.40;0.65;;;;;;;16.89;25.93;93309.63;5064113;28;20028;-73
2023/04/15 11:28:03;;;;;;;3.47;0.65;;;;;;;17.15;26.65;93310.72;5063982;28;20029;-72
2023/04/15 11:30:33;;;;;;;1.38;0.57;;;;;;;17.37;25.77;93312.50;5062643;28;20047;-72
2023/04/15 11:33:05;;;;;;;2.40;0.60;;;;;;;17.47;24.64;93321.06;5063773;28;20036;-72
2023/04/15 11:35:31;;;;;;;1.90;0.60;;;;;;;17.46;23.82;93320.25;5063755;28;20025;-72